createdAt,value
2022-09-11T00:01:12.889Z,100.00
2022-09-11T00:03:40.725Z,100.00
2022-09-11T00:06:10.751Z,100.00
2022-09-11T00:08:39.679Z,100.00
2022-09-11T00:11:12.306Z,100.00
2022-09-11T00:13:40.268Z,100.00
2022-09-11T00:16:18.056Z,100.00
2022-09-11T00:18:46.809Z,100.00
2022-09-11T00:21:13.646Z,100.00
2022-09-11T00:23:40.469Z,100.00
2022-09-11T00:26:07.243Z,100.00
2022-09-11T00:28:34.555Z,100.00
2022-09-11T00:31:07.722Z,100.00
2022-09-11T00:33:35.875Z,100.00
2022-09-11T00:36:07.864Z,100.00
2022-09-11T00:38:37.386Z,100.00
2022-09-11T00:41:08.488Z,100.00
2022-09-11T00:43:57.746Z,100.00
2022-09-11T00:46:31.564Z,100.00
2022-09-11T00:49:02.410Z,100.00
2022-09-11T00:51:33.954Z,100.00
2022-09-11T00:54:03.614Z,100.00
2022-09-11T00:56:35.650Z,100.00
2022-09-11T00:59:03.961Z,100.00
2022-09-11T01:01:30.915Z,100.00
2022-09-11T01:03:58.108Z,100.00
2022-09-11T01:06:25.540Z,100.00
2022-09-11T01:08:52.690Z,100.00
2022-09-11T01:11:30.426Z,100.00
2022-09-11T01:14:25.534Z,100.00
2022-09-11T01:16:58.658Z,100.00
2022-09-11T01:20:09.900Z,100.00
2022-09-11T01:22:51.844Z,100.00
2022-09-11T01:25:37.769Z,100.00
2022-09-11T01:28:11.497Z,100.00
2022-09-11T01:30:46.823Z,100.00
2022-09-11T01:33:28.216Z,100.00
2022-09-11T01:36:04.441Z,100.00
2022-09-11T01:38:52.849Z,100.00
2022-09-11T01:41:27.849Z,100.00
2022-09-11T01:44:18.206Z,100.00
2022-09-11T01:46:50.557Z,100.00
2022-09-11T01:49:37.427Z,100.00
2022-09-11T01:52:15.841Z,100.00
2022-09-11T01:54:51.390Z,100.00
2022-09-11T01:57:30.504Z,100.00
2022-09-11T02:00:02.203Z,100.00
2022-09-11T02:02:37.029Z,100.00
2022-09-11T02:05:18.201Z,100.00
2022-09-11T02:07:58.814Z,100.00
2022-09-11T02:10:39.812Z,100.00
2022-09-11T02:13:13.287Z,100.00
2022-09-11T02:15:48.730Z,100.00
2022-09-11T02:18:24.788Z,100.00
2022-09-11T02:20:53.919Z,100.00
2022-09-11T02:23:21.439Z,100.00
2022-09-11T02:25:48.628Z,100.00
2022-09-11T02:28:15.643Z,100.00
2022-09-11T02:30:44.000Z,100.00
2022-09-11T02:33:47.585Z,100.00
2022-09-11T02:36:39.199Z,100.00
2022-09-11T02:39:24.768Z,100.00
2022-09-11T02:42:11.093Z,100.00
2022-09-11T02:44:54.645Z,100.00
2022-09-11T02:47:45.746Z,100.00
2022-09-11T02:50:24.318Z,100.00
2022-09-11T02:53:18.602Z,100.00
2022-09-11T02:55:48.299Z,100.00
2022-09-11T02:58:22.660Z,100.00
2022-09-11T03:00:51.605Z,100.00
2022-09-11T03:03:20.743Z,100.00
2022-09-11T03:05:47.844Z,100.00
2022-09-11T03:08:17.318Z,100.00
2022-09-11T03:10:50.218Z,100.00
2022-09-11T03:13:17.191Z,100.00
2022-09-11T03:15:45.269Z,100.00
2022-09-11T03:18:15.770Z,100.00
2022-09-11T03:20:50.022Z,100.00
2022-09-11T03:23:16.706Z,100.00
2022-09-11T03:25:43.509Z,100.00
2022-09-11T03:28:11.595Z,100.00
2022-09-11T03:30:41.632Z,100.00
2022-09-11T03:33:10.175Z,100.00
2022-09-11T03:35:37.429Z,100.00
2022-09-11T03:38:04.282Z,100.00
2022-09-11T03:40:31.066Z,100.00
2022-09-11T03:42:59.740Z,100.00
2022-09-11T03:45:26.797Z,100.00
2022-09-11T03:47:53.941Z,100.00
2022-09-11T03:50:20.889Z,100.00
2022-09-11T03:52:47.599Z,100.00
2022-09-11T03:55:14.581Z,100.00
2022-09-11T03:57:41.604Z,100.00
2022-09-11T04:00:10.374Z,100.00
2022-09-11T04:02:49.791Z,100.00
2022-09-11T04:05:31.067Z,100.00
2022-09-11T04:08:00.397Z,100.00
2022-09-11T04:10:28.180Z,100.00
2022-09-11T04:12:57.525Z,100.00
2022-09-11T04:15:24.473Z,100.00
2022-09-11T04:17:52.359Z,100.00
2022-09-11T04:20:19.645Z,100.00
2022-09-11T04:22:46.850Z,100.00
2022-09-11T04:25:14.228Z,100.00
2022-09-11T04:27:41.459Z,100.00
2022-09-11T04:30:12.992Z,100.00
2022-09-11T04:32:39.700Z,100.00
2022-09-11T04:35:06.934Z,100.00
2022-09-11T04:37:40.641Z,100.00
2022-09-11T04:40:10.072Z,100.00
2022-09-11T04:42:37.254Z,100.00
2022-09-11T04:45:04.656Z,100.00
2022-09-11T04:47:32.850Z,100.00
2022-09-11T04:49:59.623Z,100.00
2022-09-11T04:52:27.884Z,100.00
2022-09-11T04:54:54.585Z,100.00
2022-09-11T04:57:21.369Z,100.00
2022-09-11T04:59:50.435Z,100.00
2022-09-11T05:02:18.571Z,100.00
2022-09-11T05:04:48.476Z,100.00
2022-09-11T05:07:15.325Z,100.00
2022-09-11T05:09:47.242Z,100.00
2022-09-11T05:12:14.894Z,100.00
2022-09-11T05:14:42.106Z,100.00
2022-09-11T05:17:08.944Z,100.00
2022-09-11T05:19:40.606Z,100.00
2022-09-11T05:22:08.143Z,100.00
2022-09-11T05:24:36.752Z,100.00
2022-09-11T05:27:03.850Z,100.00
2022-09-11T05:29:32.779Z,100.00
2022-09-11T05:32:09.172Z,100.00
2022-09-11T05:34:35.950Z,100.00
2022-09-11T05:37:03.100Z,100.00
2022-09-11T05:39:34.740Z,100.00
2022-09-11T05:42:04.555Z,100.00
2022-09-11T05:44:34.121Z,100.00
2022-09-11T05:47:00.915Z,100.00
2022-09-11T05:49:28.711Z,100.00
2022-09-11T05:51:56.857Z,100.00
2022-09-11T05:54:25.844Z,100.00
2022-09-11T05:56:54.671Z,100.00
2022-09-11T05:59:27.161Z,100.00
2022-09-11T06:01:54.878Z,100.00
2022-09-11T06:04:34.327Z,100.00
2022-09-11T06:07:01.374Z,100.00
2022-09-11T06:09:29.043Z,100.00
2022-09-11T06:11:56.736Z,100.00
2022-09-11T06:14:23.693Z,100.00
2022-09-11T06:16:51.018Z,100.00
2022-09-11T06:19:18.024Z,100.00
2022-09-11T06:21:46.055Z,100.00
2022-09-11T06:24:36.668Z,100.00
2022-09-11T06:27:03.890Z,100.00
2022-09-11T06:29:33.431Z,100.00
2022-09-11T06:32:01.325Z,100.00
2022-09-11T06:34:31.910Z,100.00
2022-09-11T06:37:02.929Z,100.00
2022-09-11T06:39:31.304Z,100.00
2022-09-11T06:41:59.781Z,100.00
2022-09-11T06:44:30.495Z,100.00
2022-09-11T06:47:00.181Z,100.00
2022-09-11T06:49:27.230Z,100.00
2022-09-11T06:52:12.718Z,100.00
2022-09-11T06:54:44.737Z,100.00
2022-09-11T06:57:15.296Z,100.00
2022-09-11T06:59:43.112Z,100.00
2022-09-11T07:02:10.379Z,100.00
2022-09-11T07:04:38.499Z,100.00
2022-09-11T07:07:05.721Z,100.00
2022-09-11T07:09:33.687Z,100.00
2022-09-11T07:12:01.453Z,100.00
2022-09-11T07:14:29.967Z,100.00
2022-09-11T07:17:07.426Z,100.00
2022-09-11T07:19:34.346Z,100.00
2022-09-11T07:22:02.409Z,100.00
2022-09-11T07:24:30.484Z,100.00
2022-09-11T07:26:58.315Z,100.00
2022-09-11T07:29:31.568Z,100.00
2022-09-11T07:31:58.973Z,100.00
2022-09-11T07:34:27.423Z,100.00
2022-09-11T07:36:55.475Z,100.00
2022-09-11T07:39:25.503Z,100.00
2022-09-11T07:42:00.570Z,100.00
2022-09-11T07:44:30.200Z,100.00
2022-09-11T07:46:57.718Z,100.00
2022-09-11T07:49:24.767Z,100.00
2022-09-11T07:51:52.703Z,100.00
2022-09-11T07:54:29.183Z,100.00
2022-09-11T07:56:58.013Z,100.00
2022-09-11T07:59:25.002Z,100.00
2022-09-11T08:01:53.464Z,100.00
2022-09-11T08:04:21.141Z,100.00
2022-09-11T08:06:48.199Z,100.00
2022-09-11T08:09:22.007Z,100.00
2022-09-11T08:11:55.983Z,100.00
2022-09-11T08:14:24.760Z,100.00
2022-09-11T08:16:53.755Z,100.00
2022-09-11T08:19:23.625Z,100.00
2022-09-11T08:21:55.367Z,99.37
2022-09-11T08:24:22.707Z,100.00
2022-09-11T08:26:51.605Z,100.00
2022-09-11T08:29:19.521Z,100.00
2022-09-11T08:31:48.025Z,96.28
2022-09-11T08:34:16.257Z,94.96
2022-09-11T08:36:45.129Z,87.18
2022-09-11T08:39:12.642Z,82.77
2022-09-11T08:41:49.410Z,82.99
2022-09-11T08:44:24.114Z,84.69
2022-09-11T08:47:01.578Z,88.23
2022-09-11T08:49:47.238Z,86.85
2022-09-11T08:52:16.785Z,80.78
2022-09-11T08:54:47.536Z,79.25
2022-09-11T08:57:16.775Z,80.03
2022-09-11T09:00:23.444Z,80.61
2022-09-11T09:03:02.932Z,80.51
2022-09-11T09:05:55.411Z,77.31
2022-09-11T09:08:37.653Z,78.05
2022-09-11T09:11:41.028Z,77.05
2022-09-11T09:14:29.307Z,75.67
2022-09-11T09:17:06.825Z,71.52
2022-09-11T09:19:41.351Z,70.70
2022-09-11T09:22:21.711Z,72.62
2022-09-11T09:24:53.761Z,72.16
2022-09-11T09:27:28.299Z,74.22
2022-09-11T09:30:02.386Z,69.53
2022-09-11T09:32:33.999Z,69.72
2022-09-11T09:35:10.974Z,70.10
2022-09-11T09:37:38.940Z,70.72
2022-09-11T09:40:09.969Z,71.09
2022-09-11T09:42:36.746Z,66.82
2022-09-11T09:45:33.829Z,66.98
2022-09-11T09:48:01.766Z,67.48
2022-09-11T09:50:39.435Z,65.57
2022-09-11T09:53:12.142Z,63.85
2022-09-11T09:55:40.532Z,62.68
2022-09-11T09:58:07.652Z,62.68
2022-09-11T10:00:37.725Z,64.32
2022-09-11T10:03:25.269Z,65.77
2022-09-11T10:05:56.303Z,64.60
2022-09-11T10:08:38.801Z,61.02
2022-09-11T10:11:12.237Z,54.82
2022-09-11T10:13:42.958Z,53.98
2022-09-11T10:16:25.636Z,54.85
2022-09-11T10:18:54.265Z,56.07
2022-09-11T10:21:25.167Z,54.90
2022-09-11T10:23:53.548Z,55.83
2022-09-11T10:26:50.561Z,55.81
2022-09-11T10:29:26.347Z,52.86
2022-09-11T10:31:55.991Z,51.87
2022-09-11T10:34:25.497Z,50.95
2022-09-11T10:37:23.615Z,49.68
2022-09-11T10:39:51.377Z,51.57
2022-09-11T10:42:25.880Z,52.51
2022-09-11T10:44:54.728Z,49.79
2022-09-11T10:47:25.102Z,49.31
2022-09-11T10:50:17.379Z,50.45
2022-09-11T10:53:17.797Z,47.85
2022-09-11T10:55:54.915Z,47.92
2022-09-11T10:58:25.506Z,46.80
2022-09-11T11:00:53.348Z,48.38
2022-09-11T11:03:24.411Z,49.26
2022-09-11T11:06:04.152Z,49.87
2022-09-11T11:09:05.072Z,45.94
2022-09-11T11:11:56.155Z,44.76
2022-09-11T11:14:49.995Z,45.64
2022-09-11T11:17:26.018Z,46.36
2022-09-11T11:20:07.241Z,45.00
2022-09-11T11:22:49.583Z,45.10
2022-09-11T11:25:41.199Z,44.54
2022-09-11T11:28:26.098Z,44.79
2022-09-11T11:31:19.469Z,44.14
2022-09-11T11:33:58.401Z,44.06
2022-09-11T11:36:46.194Z,44.51
2022-09-11T11:39:43.814Z,45.41
2022-09-11T11:42:22.688Z,44.59
2022-09-11T11:44:59.250Z,44.42
2022-09-11T11:47:32.801Z,43.97
2022-09-11T11:50:47.522Z,44.46
2022-09-11T11:53:20.388Z,42.44
2022-09-11T11:56:08.231Z,42.37
2022-09-11T11:58:41.012Z,40.49
2022-09-11T12:01:17.359Z,40.11
2022-09-11T12:03:53.176Z,41.69
2022-09-11T12:06:20.618Z,40.47
2022-09-11T12:08:48.433Z,38.68
2022-09-11T12:11:19.018Z,38.64
2022-09-11T12:13:48.484Z,39.53
2022-09-11T12:16:31.882Z,37.77
2022-09-11T12:19:12.406Z,36.89
2022-09-11T12:22:05.912Z,36.74
2022-09-11T12:24:49.936Z,37.77
2022-09-11T12:27:35.001Z,36.94
2022-09-11T12:30:28.878Z,36.50
2022-09-11T12:32:57.328Z,36.88
2022-09-11T12:35:26.816Z,37.76
2022-09-11T12:38:15.661Z,36.37
2022-09-11T12:40:57.369Z,35.07
2022-09-11T12:43:27.180Z,35.42
2022-09-11T12:45:54.046Z,35.86
2022-09-11T12:48:26.013Z,36.04
2022-09-11T12:50:55.882Z,37.30
2022-09-11T12:53:27.996Z,37.60
2022-09-11T12:56:02.583Z,35.49
2022-09-11T12:58:43.349Z,36.12
2022-09-11T13:01:10.328Z,37.29
2022-09-11T13:03:40.207Z,36.88
2022-09-11T13:06:11.844Z,39.00
2022-09-11T13:08:46.302Z,38.23
2022-09-11T13:11:38.064Z,38.05
2022-09-11T13:14:37.860Z,37.01
2022-09-11T13:17:15.072Z,33.52
2022-09-11T13:19:41.879Z,33.45
2022-09-11T13:22:27.704Z,33.41
2022-09-11T13:25:13.449Z,31.36
2022-09-11T13:27:44.327Z,29.37
2022-09-11T13:30:14.940Z,30.53
2022-09-11T13:32:43.472Z,29.31
2022-09-11T13:35:19.610Z,29.66
2022-09-11T13:38:07.531Z,30.13
2022-09-11T13:40:48.894Z,31.26
2022-09-11T13:43:23.174Z,30.56
2022-09-11T13:46:08.680Z,28.78
2022-09-11T13:48:36.841Z,28.67
2022-09-11T13:51:05.171Z,28.43
2022-09-11T13:53:33.342Z,27.84
2022-09-11T13:56:00.291Z,27.68
2022-09-11T13:58:35.273Z,28.14
2022-09-11T14:01:14.463Z,29.17
2022-09-11T14:03:46.944Z,28.51
2022-09-11T14:06:20.023Z,28.69
2022-09-11T14:08:53.845Z,27.93
2022-09-11T14:11:28.337Z,27.14
2022-09-11T14:14:06.372Z,27.06
2022-09-11T14:16:39.790Z,26.77
2022-09-11T14:19:13.290Z,26.35
2022-09-11T14:21:43.789Z,25.72
2022-09-11T14:24:33.465Z,25.55
2022-09-11T14:27:05.099Z,26.32
2022-09-11T14:29:33.881Z,25.76
2022-09-11T14:32:33.995Z,26.47
2022-09-11T14:35:01.268Z,27.46
2022-09-11T14:37:31.061Z,26.34
2022-09-11T14:40:03.139Z,26.23
2022-09-11T14:42:32.073Z,24.64
2022-09-11T14:45:00.147Z,25.43
2022-09-11T14:47:29.370Z,23.36
2022-09-11T14:49:57.544Z,23.79
2022-09-11T14:52:27.336Z,29.11
2022-09-11T14:54:55.193Z,28.76
2022-09-11T14:57:24.495Z,30.29
2022-09-11T14:59:52.531Z,31.39
2022-09-11T15:02:24.598Z,33.87
2022-09-11T15:04:53.469Z,35.66
2022-09-11T15:07:24.384Z,36.66
2022-09-11T15:09:53.046Z,37.88
2022-09-11T15:12:20.743Z,39.11
2022-09-11T15:14:58.028Z,40.34
2022-09-11T15:17:25.902Z,42.18
2022-09-11T15:19:53.467Z,43.37
2022-09-11T15:22:20.867Z,44.63
2022-09-11T15:24:48.828Z,44.39
2022-09-11T15:27:16.153Z,45.40
2022-09-11T15:29:42.952Z,46.49
2022-09-11T15:32:10.389Z,47.04
2022-09-11T15:34:39.408Z,48.18
2022-09-11T15:37:06.291Z,49.64
2022-09-11T15:39:34.057Z,50.42
2022-09-11T15:42:02.369Z,50.51
2022-09-11T15:44:29.442Z,51.95
2022-09-11T15:46:57.880Z,52.40
2022-09-11T15:49:28.527Z,53.24
2022-09-11T15:51:55.633Z,54.29
2022-09-11T15:54:23.953Z,54.59
2022-09-11T15:56:53.366Z,55.62
2022-09-11T15:59:20.510Z,56.19
2022-09-11T16:01:47.669Z,56.72
2022-09-11T16:04:19.322Z,57.07
2022-09-11T16:06:47.695Z,56.67
2022-09-11T16:09:18.431Z,55.65
2022-09-11T16:11:47.841Z,56.23
2022-09-11T16:14:19.753Z,56.68
2022-09-11T16:16:49.835Z,57.19
2022-09-11T16:19:18.622Z,58.39
2022-09-11T16:21:45.670Z,59.22
2022-09-11T16:24:14.788Z,58.94
2022-09-11T16:26:44.036Z,60.80
2022-09-11T16:29:12.534Z,65.34
2022-09-11T16:31:40.211Z,69.07
2022-09-11T16:34:07.932Z,68.31
2022-09-11T16:36:43.995Z,72.23
2022-09-11T16:39:13.913Z,71.70
2022-09-11T16:41:40.761Z,74.67
2022-09-11T16:44:10.342Z,78.64
2022-09-11T16:46:37.798Z,77.96
2022-09-11T16:49:06.142Z,100.00
2022-09-11T16:51:34.258Z,89.15
2022-09-11T16:54:03.540Z,89.75
2022-09-11T16:56:31.015Z,91.20
2022-09-11T16:58:57.750Z,95.96
2022-09-11T17:01:27.848Z,95.75
2022-09-11T17:03:57.008Z,99.12
2022-09-11T17:06:30.406Z,97.38
2022-09-11T17:08:59.838Z,97.58
2022-09-11T17:11:28.109Z,97.65
2022-09-11T17:13:54.995Z,99.19
2022-09-11T17:16:25.573Z,100.00
2022-09-11T17:18:54.803Z,100.00
2022-09-11T17:21:24.230Z,100.00
2022-09-11T17:23:52.925Z,100.00
2022-09-11T17:26:20.268Z,100.00
2022-09-11T17:28:48.991Z,100.00
2022-09-11T17:31:19.418Z,100.00
2022-09-11T17:33:47.937Z,100.00
2022-09-11T17:36:18.253Z,100.00
2022-09-11T17:38:48.265Z,100.00
2022-09-11T17:41:15.825Z,100.00
2022-09-11T17:43:42.820Z,100.00
2022-09-11T17:46:28.341Z,100.00
2022-09-11T17:48:55.591Z,100.00
2022-09-11T17:51:25.003Z,100.00
2022-09-11T17:53:57.305Z,100.00
2022-09-11T17:56:27.716Z,100.00
2022-09-11T17:58:56.777Z,100.00
2022-09-11T18:01:25.318Z,100.00
2022-09-11T18:03:57.446Z,100.00
2022-09-11T18:06:37.233Z,100.00
2022-09-11T18:09:14.006Z,100.00
2022-09-11T18:11:43.481Z,100.00
2022-09-11T18:14:13.784Z,100.00
2022-09-11T18:16:41.094Z,100.00
2022-09-11T18:19:07.962Z,100.00
2022-09-11T18:21:38.257Z,100.00
2022-09-11T18:24:06.538Z,100.00
2022-09-11T18:26:42.112Z,100.00
2022-09-11T18:29:12.350Z,100.00
2022-09-11T18:31:50.353Z,100.00
2022-09-11T18:34:23.374Z,100.00
2022-09-11T18:36:50.339Z,100.00
2022-09-11T18:39:18.952Z,100.00
2022-09-11T18:41:47.351Z,100.00
2022-09-11T18:44:19.960Z,100.00
2022-09-11T18:46:47.859Z,100.00
2022-09-11T18:49:15.410Z,100.00
2022-09-11T18:51:42.534Z,100.00
2022-09-11T18:54:18.072Z,100.00
2022-09-11T18:56:45.543Z,100.00
2022-09-11T18:59:12.931Z,100.00
2022-09-11T19:01:40.761Z,100.00
2022-09-11T19:04:12.181Z,100.00
2022-09-11T19:06:39.741Z,100.00
2022-09-11T19:09:13.613Z,100.00
2022-09-11T19:11:40.815Z,100.00
2022-09-11T19:14:10.136Z,100.00
2022-09-11T19:16:38.017Z,100.00
2022-09-11T19:19:07.446Z,100.00
2022-09-11T19:21:34.378Z,100.00
2022-09-11T19:24:02.042Z,100.00
2022-09-11T19:26:34.748Z,100.00
2022-09-11T19:29:01.886Z,100.00
2022-09-11T19:31:29.748Z,100.00
2022-09-11T19:33:58.016Z,100.00
2022-09-11T19:36:26.885Z,100.00
2022-09-11T19:38:56.110Z,100.00
2022-09-11T19:41:25.906Z,100.00
2022-09-11T19:43:54.345Z,100.00
2022-09-11T19:46:26.361Z,100.00
2022-09-11T19:48:57.002Z,100.00
2022-09-11T19:51:28.917Z,100.00
2022-09-11T19:54:00.212Z,100.00
2022-09-11T19:56:28.355Z,100.00
2022-09-11T19:58:55.789Z,100.00
2022-09-11T20:01:24.374Z,100.00
2022-09-11T20:03:53.343Z,100.00
2022-09-11T20:06:22.950Z,100.00
2022-09-11T20:08:55.999Z,100.00
2022-09-11T20:11:35.001Z,100.00
2022-09-11T20:14:01.859Z,100.00
2022-09-11T20:16:29.267Z,100.00
2022-09-11T20:19:00.520Z,100.00
2022-09-11T20:21:27.385Z,100.00
2022-09-11T20:23:55.635Z,100.00
2022-09-11T20:26:25.207Z,100.00
2022-09-11T20:29:18.233Z,100.00
2022-09-11T20:31:47.797Z,100.00
2022-09-11T20:34:19.321Z,100.00
2022-09-11T20:36:47.257Z,100.00
2022-09-11T20:39:15.804Z,100.00
2022-09-11T20:41:43.226Z,100.00
2022-09-11T20:44:10.589Z,100.00
2022-09-11T20:46:37.480Z,100.00
2022-09-11T20:49:04.899Z,100.00
2022-09-11T20:51:33.107Z,100.00
2022-09-11T20:54:00.520Z,100.00
2022-09-11T20:56:28.365Z,100.00
2022-09-11T20:58:55.907Z,100.00
2022-09-11T21:01:25.120Z,100.00
2022-09-11T21:03:56.604Z,100.00
2022-09-11T21:06:27.195Z,100.00
2022-09-11T21:08:55.987Z,100.00
2022-09-11T21:11:27.138Z,100.00
2022-09-11T21:13:54.465Z,100.00
2022-09-11T21:16:22.244Z,100.00
2022-09-11T21:18:55.016Z,100.00
2022-09-11T21:21:22.916Z,100.00
2022-09-11T21:23:49.827Z,100.00
2022-09-11T21:26:17.600Z,100.00
2022-09-11T21:28:44.865Z,100.00
2022-09-11T21:31:12.258Z,100.00
2022-09-11T21:33:40.070Z,100.00
2022-09-11T21:36:07.562Z,100.00
2022-09-11T21:38:35.978Z,100.00
2022-09-11T21:41:05.519Z,100.00
2022-09-11T21:43:32.684Z,100.00
2022-09-11T21:45:59.662Z,100.00
2022-09-11T21:48:26.504Z,100.00
2022-09-11T21:50:53.541Z,100.00
2022-09-11T21:53:20.995Z,100.00
2022-09-11T21:55:51.252Z,100.00
2022-09-11T21:58:21.063Z,100.00
2022-09-11T22:00:48.929Z,100.00
2022-09-11T22:03:18.563Z,100.00
2022-09-11T22:05:49.193Z,100.00
2022-09-11T22:08:18.581Z,100.00
2022-09-11T22:10:48.458Z,100.00
2022-09-11T22:13:16.662Z,100.00
2022-09-11T22:15:45.935Z,100.00
2022-09-11T22:18:13.406Z,100.00
2022-09-11T22:20:41.674Z,100.00
2022-09-11T22:23:13.424Z,100.00
2022-09-11T22:25:40.897Z,100.00
2022-09-11T22:28:08.017Z,100.00
2022-09-11T22:30:34.885Z,100.00
2022-09-11T22:33:01.739Z,100.00
2022-09-11T22:35:28.886Z,100.00
2022-09-11T22:37:55.788Z,100.00
2022-09-11T22:40:22.536Z,100.00
2022-09-11T22:42:49.964Z,100.00
2022-09-11T22:45:17.128Z,100.00
2022-09-11T22:47:43.843Z,100.00
2022-09-11T22:50:10.950Z,100.00
2022-09-11T22:52:37.711Z,100.00
2022-09-11T22:55:06.143Z,100.00
2022-09-11T22:57:35.437Z,100.00
2022-09-11T23:00:04.815Z,100.00
2022-09-11T23:02:32.892Z,100.00
2022-09-11T23:05:18.154Z,100.00
2022-09-11T23:07:49.106Z,100.00
2022-09-11T23:10:16.805Z,100.00
2022-09-11T23:12:44.494Z,100.00
2022-09-11T23:15:11.316Z,100.00
2022-09-11T23:17:38.035Z,100.00
2022-09-11T23:20:05.250Z,100.00
2022-09-11T23:22:31.987Z,100.00
2022-09-11T23:24:58.683Z,100.00
2022-09-11T23:27:25.425Z,100.00
2022-09-11T23:29:52.318Z,100.00
2022-09-11T23:32:19.093Z,100.00
2022-09-11T23:34:45.796Z,100.00
2022-09-11T23:37:12.538Z,100.00
2022-09-11T23:39:39.512Z,100.00
2022-09-11T23:42:06.436Z,100.00
2022-09-11T23:44:33.162Z,100.00
2022-09-11T23:47:02.280Z,100.00
2022-09-11T23:49:36.217Z,100.00
2022-09-11T23:52:04.181Z,100.00
2022-09-11T23:54:31.003Z,100.00
2022-09-11T23:56:57.981Z,100.00
2022-09-11T23:59:24.872Z,100.00
